Time;durP1;ratioP1;P1;durP2;ratioP2;P2;SDS_P1;SDS_P2;PMS_P1;PMS_P2;Temp;Humidity;BMP_temperature;BMP_pressure;BME280_temperature;BME280_humidity;BME280_pressure;Samples;Min_cycle;Max_cycle;Signal;HPM_P1;HPM_P2
2023/01/27 00:02:16;;;;;;;6.88;1.60;;;;;;;;;;5019750;28;20033;-73
2023/01/27 00:04:41;;;;;;;8.57;1.65;;;;;;;;;;5028666;28;20041;-74
2023/01/27 00:13:44;;;;;;;5.28;1.60;;;;;;;;;;5017812;28;20123;-73
2023/01/27 00:16:09;;;;;;;7.60;1.77;;;;;;;;;;5018635;28;20026;-73
2023/01/27 00:18:34;;;;;;;7.53;1.63;;;;;;;;;;5014523;28;20042;-73
2023/01/27 00:26:28;;;;;;;5.75;1.92;;;;;;;;;;5018482;28;20507;-73
2023/01/27 00:28:53;;;;;;;6.45;2.22;;;;;;;;;;5021364;28;20034;-73
2023/01/27 00:34:09;;;;;;;5.03;1.92;;;;;;;;;;5018758;28;20065;-73
2023/01/27 00:36:39;;;;;;;3.60;1.77;;;;;;;;;;5010569;28;20042;-73
2023/01/27 00:39:06;;;;;;;6.72;2.15;;;;;;;;;;5014127;28;20105;-73
2023/01/27 00:41:32;;;;;;;7.28;2.03;;;;;;;;;;5030941;28;20029;-73
2023/01/27 00:43:58;;;;;;;10.85;2.00;;;;;;;;;;5021272;28;20030;-73
2023/01/27 00:46:24;;;;;;;7.38;2.10;;;;;;;;;;5028032;28;20045;-73
2023/01/27 00:48:53;;;;;;;3.25;1.63;;;;;;;;;;5013673;28;20548;-73
2023/01/27 00:51:19;;;;;;;14.20;1.60;;;;;;;;;;5022009;28;20049;-74
2023/01/27 00:53:45;;;;;;;6.05;1.73;;;;;;;;;;5018146;28;20396;-73
2023/01/27 00:56:10;;;;;;;6.80;1.65;;;;;;;;;;5019574;28;20030;-73
2023/01/27 00:58:36;;;;;;;4.63;1.75;;;;;;;;;;5016163;28;20442;-74
2023/01/27 01:01:03;;;;;;;3.47;1.63;;;;;;;;;;5012609;28;20033;-73
2023/01/27 01:03:30;;;;;;;2.53;1.40;;;;;;;;;;5017031;28;20034;-73
2023/01/27 01:05:57;;;;;;;7.40;1.50;;;;;;;;;;5014337;28;20030;-73
2023/01/27 01:08:23;;;;;;;4.85;2.08;;;;;;;;;;5013398;28;20045;-73
2023/01/27 01:10:48;;;;;;;3.97;1.70;;;;;;;;;;5014998;28;20042;-73
2023/01/27 01:13:14;;;;;;;5.15;1.63;;;;;;;;;;5018770;28;20041;-74
2023/01/27 01:15:40;;;;;;;7.72;1.75;;;;;;;;;;5022671;28;20041;-72
2023/01/27 01:18:07;;;;;;;5.00;1.33;;;;;;;;;;5022111;28;20470;-73
2023/01/27 01:20:37;;;;;;;5.82;1.63;;;;;;;;;;5015661;28;20476;-74
2023/01/27 01:23:03;;;;;;;7.57;1.77;;;;;;;;;;5003822;28;20052;-73
2023/01/27 01:25:28;;;;;;;5.00;1.60;;;;;;;;;;5022881;28;20116;-73
2023/01/27 01:27:54;;;;;;;5.90;1.90;;;;;;;;;;5016097;28;20029;-73
2023/01/27 01:30:20;;;;;;;7.75;2.78;;;;;;;;;;5015131;28;20112;-75
2023/01/27 01:32:46;;;;;;;8.25;3.45;;;;;;;;;;5016928;28;20057;-73
2023/01/27 01:35:12;;;;;;;12.52;3.55;;;;;;;;;;5014141;28;20367;-73
2023/01/27 01:37:37;;;;;;;7.72;3.17;;;;;;;;;;5015836;28;20077;-73
2023/01/27 01:40:03;;;;;;;11.80;2.13;;;;;;;;;;5014626;28;20033;-73
2023/01/27 01:42:54;;;;;;;4.63;1.95;;;;;;;;;;5021552;28;20081;-73
2023/01/27 01:45:31;;;;;;;7.03;2.08;;;;;;;;;;5014255;28;20124;-73
2023/01/27 01:48:03;;;;;;;6.65;2.30;;;;;;;;;;5015669;28;20087;-73
2023/01/27 01:50:28;;;;;;;8.25;2.78;;;;;;;;;;5019701;28;20037;-73
2023/01/27 01:52:54;;;;;;;7.80;2.47;;;;;;;;;;5015258;28;20555;-73
2023/01/27 01:55:21;;;;;;;7.25;1.60;;;;;;;;;;5013275;28;20025;-73
2023/01/27 01:57:47;;;;;;;6.00;1.70;;;;;;;;;;5018269;28;20136;-73
2023/01/27 02:00:13;;;;;;;7.45;1.73;;;;;;;;;;5016746;28;20086;-73
2023/01/27 02:02:39;;;;;;;10.65;2.53;;;;;;;;;;5022965;28;20075;-73
2023/01/27 02:05:18;;;;;;;6.85;2.03;;;;;;;;;;5016921;28;20042;-74
2023/01/27 02:07:46;;;;;;;13.95;2.00;;;;;;;;;;5018106;28;20037;-73
2023/01/27 02:10:12;;;;;;;6.00;1.88;;;;;;;;;;5021269;28;20076;-73
2023/01/27 02:12:37;;;;;;;3.90;1.40;;;;;;;;;;5031810;28;20033;-73
2023/01/27 02:15:04;;;;;;;4.22;1.63;;;;;;;;;;5026486;28;20037;-77
2023/01/27 02:17:30;;;;;;;3.75;1.50;;;;;;;;;;5034995;28;20050;-73
2023/01/27 02:20:17;;;;;;;4.30;1.85;;;;;;;;;;5018086;28;20038;-73
2023/01/27 02:22:58;;;;;;;5.28;1.85;;;;;;;;;;5024699;28;20467;-73
2023/01/27 02:25:33;;;;;;;6.18;1.98;;;;;;;;;;5017222;28;20041;-73
2023/01/27 02:27:59;;;;;;;4.32;1.80;;;;;;;;;;5028442;28;20053;-73
2023/01/27 02:30:24;;;;;;;5.05;1.95;;;;;;;;;;5023173;28;20049;-73
2023/01/27 02:32:49;;;;;;;4.40;1.65;;;;;;;;;;5021661;28;20478;-73
2023/01/27 02:35:36;;;;;;;3.17;1.58;;;;;;;;;;5021677;28;20034;-73
2023/01/27 02:38:03;;;;;;;4.63;1.45;;;;;;;;;;5024045;28;20050;-72
2023/01/27 02:40:29;;;;;;;3.05;1.40;;;;;;;;;;5018953;28;20398;-73
2023/01/27 02:42:58;;;;;;;5.22;1.50;;;;;;;;;;5019596;28;20041;-73
2023/01/27 02:45:23;;;;;;;5.70;1.70;;;;;;;;;;5019588;28;20029;-74
2023/01/27 02:47:49;;;;;;;3.35;1.60;;;;;;;;;;5021815;28;20045;-73
2023/01/27 02:50:15;;;;;;;3.38;1.77;;;;;;;;;;5016709;28;20481;-74
2023/01/27 02:52:40;;;;;;;5.53;1.60;;;;;;;;;;5017951;28;20041;-74
2023/01/27 02:55:06;;;;;;;4.60;1.63;;;;;;;;;;5023117;28;20399;-73
2023/01/27 02:57:31;;;;;;;4.93;1.83;;;;;;;;;;5025265;28;20046;-73
2023/01/27 02:59:57;;;;;;;5.22;2.35;;;;;;;;;;5028768;28;20022;-72
2023/01/27 03:02:29;;;;;;;8.85;1.60;;;;;;;;;;5024154;28;20125;-73
2023/01/27 03:04:58;;;;;;;4.00;2.20;;;;;;;;;;5030150;28;20049;-73
2023/01/27 03:07:23;;;;;;;7.18;1.95;;;;;;;;;;5014264;28;20556;-73
2023/01/27 03:09:49;;;;;;;8.02;1.92;;;;;;;;;;5018087;28;20037;-73
2023/01/27 03:12:20;;;;;;;4.55;1.90;;;;;;;;;;5030025;28;20033;-73
2023/01/27 03:20:20;;;;;;;6.60;1.60;;;;;;;;;;5017249;28;20412;-73
2023/01/27 03:22:46;;;;;;;10.82;1.70;;;;;;;;;;5019786;28;20049;-73
2023/01/27 03:25:12;;;;;;;10.10;1.55;;;;;;;;;;5022674;28;20030;-73
2023/01/27 03:27:37;;;;;;;5.72;1.77;;;;;;;;;;5027252;28;20040;-72
2023/01/27 03:30:03;;;;;;;4.05;1.50;;;;;;;;;;5020540;28;20034;-74
2023/01/27 03:32:30;;;;;;;3.88;1.50;;;;;;;;;;5022161;28;20149;-73
2023/01/27 03:35:00;;;;;;;3.88;1.67;;;;;;;;;;5020707;28;20041;-74
2023/01/27 03:48:31;;;;;;;2.97;1.38;;;;;;;;;;5016065;28;20056;-73
2023/01/27 03:50:57;;;;;;;4.07;1.60;;;;;;;;;;5020047;28;20061;-73
2023/01/27 03:53:23;;;;;;;5.80;1.45;;;;;;;;;;5018456;28;20037;-73
2023/01/27 03:55:48;;;;;;;6.97;1.50;;;;;;;;;;5018205;28;20048;-73
2023/01/27 03:58:18;;;;;;;4.43;1.40;;;;;;;;;;5026584;28;20052;-73
2023/01/27 04:00:53;;;;;;;2.88;1.40;;;;;;;;;;5026218;28;20494;-72
2023/01/27 04:08:57;;;;;;;7.95;1.50;;;;;;;;;;5017544;28;20129;-74
2023/01/27 04:14:08;;;;;;;2.08;1.17;;;;;;;;;;5021150;28;20107;-73
2023/01/27 04:16:35;;;;;;;9.55;1.40;;;;;;;;;;5014234;28;20034;-73
2023/01/27 04:19:02;;;;;;;2.90;1.30;;;;;;;;;;5015893;28;20042;-73
2023/01/27 04:21:27;;;;;;;7.38;1.77;;;;;;;;;;5013012;28;20030;-73
2023/01/27 04:23:53;;;;;;;5.88;1.42;;;;;;;;;;5005076;28;20125;-73
2023/01/27 04:26:19;;;;;;;8.55;2.15;;;;;;;;;;5015575;28;20037;-73
2023/01/27 04:28:45;;;;;;;9.10;1.40;;;;;;;;;;5037180;28;20037;-73
2023/01/27 04:31:10;;;;;;;2.80;1.00;;;;;;;;;;5026702;28;20038;-73
2023/01/27 04:33:36;;;;;;;6.20;1.63;;;;;;;;;;5024127;28;20429;-73
2023/01/27 04:36:01;;;;;;;4.05;1.38;;;;;;;;;;5026605;28;20032;-73
2023/01/27 04:38:26;;;;;;;5.05;1.23;;;;;;;;;;5023117;28;20485;-74
2023/01/27 04:40:52;;;;;;;5.13;1.70;;;;;;;;;;5018940;28;20037;-73
2023/01/27 04:43:17;;;;;;;5.75;1.60;;;;;;;;;;5017293;28;20025;-73
2023/01/27 04:45:43;;;;;;;6.13;1.73;;;;;;;;;;5021871;28;20505;-73
2023/01/27 04:48:08;;;;;;;4.60;1.23;;;;;;;;;;5016895;28;20042;-73
2023/01/27 04:50:33;;;;;;;3.42;1.50;;;;;;;;;;5016641;28;20022;-73
2023/01/27 04:52:59;;;;;;;8.13;1.58;;;;;;;;;;5021060;28;20518;-73
2023/01/27 04:55:24;;;;;;;2.75;1.20;;;;;;;;;;5026826;28;20041;-73
2023/01/27 04:57:50;;;;;;;3.38;1.33;;;;;;;;;;5026519;28;20036;-73
2023/01/27 05:00:16;;;;;;;4.35;1.58;;;;;;;;;;5027577;28;20471;-73
2023/01/27 05:02:41;;;;;;;3.03;1.30;;;;;;;;;;5024844;28;20053;-73
2023/01/27 05:05:08;;;;;;;5.55;1.38;;;;;;;;;;5014441;28;20038;-73
2023/01/27 05:07:34;;;;;;;8.02;1.63;;;;;;;;;;5014109;28;20410;-73
2023/01/27 05:09:59;;;;;;;3.03;1.80;;;;;;;;;;5028061;28;20037;-73
2023/01/27 05:12:24;;;;;;;5.40;1.60;;;;;;;;;;5016526;28;20038;-74
2023/01/27 05:14:50;;;;;;;9.82;2.53;;;;;;;;;;5013694;28;20037;-74
2023/01/27 05:17:15;;;;;;;7.68;2.03;;;;;;;;;;5014728;28;20121;-73
2023/01/27 05:19:41;;;;;;;3.30;1.70;;;;;;;;;;5018841;28;20041;-73
2023/01/27 05:22:07;;;;;;;5.30;2.03;;;;;;;;;;5021440;28;20498;-73
2023/01/27 05:24:33;;;;;;;6.97;1.98;;;;;;;;;;5015568;28;20038;-74
2023/01/27 05:26:58;;;;;;;4.70;2.05;;;;;;;;;;5013475;28;20042;-73
2023/01/27 05:29:23;;;;;;;5.88;2.83;;;;;;;;;;5013837;28;20049;-73
2023/01/27 05:31:49;;;;;;;5.95;2.47;;;;;;;;;;5022701;28;20120;-73
2023/01/27 05:34:15;;;;;;;4.20;1.63;;;;;;;;;;5031580;28;20037;-73
2023/01/27 05:36:41;;;;;;;4.57;1.73;;;;;;;;;;5021412;28;20119;-73
2023/01/27 05:39:09;;;;;;;10.18;2.22;;;;;;;;;;5016758;28;20466;-73
2023/01/27 05:41:34;;;;;;;10.15;2.60;;;;;;;;;;5021788;28;20037;-73
2023/01/27 05:44:00;;;;;;;9.00;3.20;;;;;;;;;;5022759;28;20053;-73
2023/01/27 05:46:28;;;;;;;10.55;2.95;;;;;;;;;;5015307;28;20046;-73
2023/01/27 05:48:57;;;;;;;5.40;2.70;;;;;;;;;;5025232;28;20109;-73
2023/01/27 05:51:24;;;;;;;7.60;2.13;;;;;;;;;;5026022;28;20076;-73
2023/01/27 05:53:50;;;;;;;4.97;2.17;;;;;;;;;;5031572;28;20045;-73
2023/01/27 05:56:16;;;;;;;5.60;2.80;;;;;;;;;;5018182;28;20427;-73
2023/01/27 05:58:43;;;;;;;16.25;3.60;;;;;;;;;;5015650;28;20038;-73
2023/01/27 06:01:17;;;;;;;7.75;2.83;;;;;;;;;;5019254;28;20029;-73
2023/01/27 06:03:43;;;;;;;5.35;2.90;;;;;;;;;;5018008;28;20072;-73
2023/01/27 06:06:10;;;;;;;9.90;3.30;;;;;;;;;;5022313;28;20033;-73
2023/01/27 06:08:36;;;;;;;7.05;3.22;;;;;;;;;;5018494;28;20038;-73
2023/01/27 06:11:01;;;;;;;6.40;3.28;;;;;;;;;;5022020;28;20113;-73
2023/01/27 06:13:27;;;;;;;11.23;4.65;;;;;;;;;;5021092;28;20117;-73
2023/01/27 06:15:54;;;;;;;12.48;4.90;;;;;;;;;;5020921;28;20073;-73
2023/01/27 06:18:20;;;;;;;7.60;3.25;;;;;;;;;;5019991;28;20034;-75
2023/01/27 06:20:45;;;;;;;9.45;3.85;;;;;;;;;;5025680;28;20489;-73
2023/01/27 06:23:12;;;;;;;8.73;3.30;;;;;;;;;;5014543;28;20030;-73
2023/01/27 06:25:39;;;;;;;6.85;3.90;;;;;;;;;;5041286;28;20502;-74
2023/01/27 06:28:05;;;;;;;5.70;2.20;;;;;;;;;;5014371;28;20121;-73
2023/01/27 06:30:35;;;;;;;5.43;1.77;;;;;;;;;;5014687;28;20030;-73
2023/01/27 06:33:01;;;;;;;9.75;2.17;;;;;;;;;;5013839;28;20050;-73
2023/01/27 06:35:26;;;;;;;5.45;2.03;;;;;;;;;;5021257;28;20040;-73
2023/01/27 06:37:51;;;;;;;12.98;2.10;;;;;;;;;;5024639;28;20037;-73
2023/01/27 06:40:17;;;;;;;4.82;2.40;;;;;;;;;;5022174;28;20033;-75
2023/01/27 06:42:43;;;;;;;3.92;2.08;;;;;;;;;;5015615;28;20049;-73
2023/01/27 06:45:12;;;;;;;6.97;2.20;;;;;;;;;;5014152;28;20029;-73
2023/01/27 06:47:39;;;;;;;4.72;2.13;;;;;;;;;;5021071;28;20084;-73
2023/01/27 06:50:05;;;;;;;3.47;1.67;;;;;;;;;;5021356;28;20050;-73
2023/01/27 06:52:30;;;;;;;4.22;2.00;;;;;;;;;;5019146;28;20452;-73
2023/01/27 06:54:56;;;;;;;4.65;1.77;;;;;;;;;;5017970;28;20099;-74
2023/01/27 06:57:21;;;;;;;9.48;2.20;;;;;;;;;;5018431;28;20042;-73
2023/01/27 06:59:46;;;;;;;5.05;1.70;;;;;;;;;;5024053;28;20446;-73
2023/01/27 07:02:12;;;;;;;5.70;2.58;;;;;;;;;;5026842;28;20042;-73
2023/01/27 07:04:38;;;;;;;6.85;2.03;;;;;;;;;;5017497;28;20041;-73
2023/01/27 07:07:03;;;;;;;4.97;1.60;;;;;;;;;;5029204;28;20029;-74
2023/01/27 07:09:28;;;;;;;5.05;1.50;;;;;;;;;;5020063;28;20436;-73
2023/01/27 07:11:54;;;;;;;5.38;1.40;;;;;;;;;;5023468;28;20053;-73
2023/01/27 07:14:19;;;;;;;4.00;1.52;;;;;;;;;;5018518;28;20073;-73
2023/01/27 07:16:45;;;;;;;2.78;1.35;;;;;;;;;;5032206;28;20435;-72
2023/01/27 07:19:11;;;;;;;3.25;1.40;;;;;;;;;;5016158;28;20557;-74
2023/01/27 07:21:37;;;;;;;5.80;1.80;;;;;;;;;;5033762;28;20481;-73
2023/01/27 07:24:02;;;;;;;3.38;1.55;;;;;;;;;;5020428;28;20105;-74
2023/01/27 07:26:28;;;;;;;2.97;1.60;;;;;;;;;;5033298;28;20512;-73
2023/01/27 07:28:54;;;;;;;2.53;1.50;;;;;;;;;;5022180;28;20049;-74
2023/01/27 07:31:20;;;;;;;4.07;1.50;;;;;;;;;;5015655;28;20102;-73
2023/01/27 07:33:45;;;;;;;3.70;1.80;;;;;;;;;;5022894;28;20441;-72
2023/01/27 07:36:10;;;;;;;5.40;2.10;;;;;;;;;;5032695;28;20035;-73
2023/01/27 07:38:37;;;;;;;7.55;2.15;;;;;;;;;;5028185;28;20048;-73
2023/01/27 07:41:04;;;;;;;3.80;1.85;;;;;;;;;;5029943;28;20033;-73
2023/01/27 07:43:31;;;;;;;5.25;2.03;;;;;;;;;;5021728;28;20030;-73
2023/01/27 07:45:56;;;;;;;9.23;1.83;;;;;;;;;;5023058;28;20046;-73
2023/01/27 07:48:22;;;;;;;2.75;1.30;;;;;;;;;;5022057;28;20112;-73
2023/01/27 07:50:47;;;;;;;3.25;1.45;;;;;;;;;;5022819;28;20358;-73
2023/01/27 07:53:14;;;;;;;4.20;1.55;;;;;;;;;;5028009;28;20052;-73
2023/01/27 07:55:40;;;;;;;13.27;3.75;;;;;;;;;;5019985;28;20417;-72
2023/01/27 07:58:05;;;;;;;6.05;2.70;;;;;;;;;;5029552;28;20088;-74
2023/01/27 08:00:31;;;;;;;5.63;1.80;;;;;;;;;;5025262;28;20088;-74
2023/01/27 08:02:57;;;;;;;5.47;2.78;;;;;;;;;;5030408;28;20033;-73
2023/01/27 08:05:24;;;;;;;8.57;2.10;;;;;;;;;;5040350;28;20033;-73
2023/01/27 08:07:50;;;;;;;4.60;1.92;;;;;;;;;;5023102;28;20069;-73
2023/01/27 08:10:17;;;;;;;3.63;1.92;;;;;;;;;;5015124;28;20401;-73
2023/01/27 08:12:43;;;;;;;4.05;1.75;;;;;;;;;;5021250;28;20040;-73
2023/01/27 08:15:09;;;;;;;5.60;2.58;;;;;;;;;;5031633;28;20037;-73
2023/01/27 08:17:34;;;;;;;5.18;2.65;;;;;;;;;;5030115;28;20476;-73
2023/01/27 08:20:00;;;;;;;6.47;2.80;;;;;;;;;;5029971;28;20029;-73
2023/01/27 08:22:27;;;;;;;6.50;3.22;;;;;;;;;;5019757;28;20084;-73
2023/01/27 08:24:53;;;;;;;6.00;3.35;;;;;;;;;;5031149;28;20034;-73
2023/01/27 08:27:18;;;;;;;5.85;2.72;;;;;;;;;;5032495;28;20036;-77
2023/01/27 08:29:44;;;;;;;7.65;2.72;;;;;;;;;;5026589;28;20128;-73
2023/01/27 08:32:09;;;;;;;5.07;1.88;;;;;;;;;;5021143;28;20037;-73
2023/01/27 08:34:38;;;;;;;5.45;2.40;;;;;;;;;;5014714;28;20412;-75
2023/01/27 08:37:04;;;;;;;4.05;1.80;;;;;;;;;;5023369;28;20045;-73
2023/01/27 08:39:30;;;;;;;5.47;1.95;;;;;;;;;;5040528;28;20517;-73
2023/01/27 08:41:56;;;;;;;7.50;1.83;;;;;;;;;;5020437;28;20029;-75
2023/01/27 08:44:22;;;;;;;4.93;2.25;;;;;;;;;;5021828;28;20045;-74
2023/01/27 08:46:48;;;;;;;6.90;2.00;;;;;;;;;;5017363;28;20485;-73
2023/01/27 08:49:13;;;;;;;4.43;1.90;;;;;;;;;;5018739;28;20041;-73
2023/01/27 08:51:39;;;;;;;6.15;2.50;;;;;;;;;;5018313;28;20096;-73
2023/01/27 08:54:05;;;;;;;3.53;2.17;;;;;;;;;;5027509;28;20065;-73
2023/01/27 08:56:30;;;;;;;6.35;2.30;;;;;;;;;;5007507;28;20466;-73
2023/01/27 08:58:56;;;;;;;4.30;2.47;;;;;;;;;;5017241;28;20061;-73
2023/01/27 09:01:22;;;;;;;5.30;2.33;;;;;;;;;;5023950;28;20061;-73
2023/01/27 09:03:47;;;;;;;4.88;2.38;;;;;;;;;;5018219;28;20037;-73
2023/01/27 09:06:14;;;;;;;5.05;2.35;;;;;;;;;;5018277;28;20072;-73
2023/01/27 09:08:40;;;;;;;6.85;3.40;;;;;;;;;;5021944;28;20033;-73
2023/01/27 09:11:14;;;;;;;8.05;3.67;;;;;;;;;;5040202;28;20036;-73
2023/01/27 09:13:40;;;;;;;6.93;3.40;;;;;;;;;;5012342;28;20038;-73
2023/01/27 09:16:06;;;;;;;6.63;3.50;;;;;;;;;;4992620;28;20044;-73
2023/01/27 09:18:32;;;;;;;8.25;3.97;;;;;;;;;;5012387;28;20037;-74
2023/01/27 09:21:02;;;;;;;7.45;3.70;;;;;;;;;;5016315;28;20120;-74
2023/01/27 09:23:27;;;;;;;7.57;4.82;;;;;;;;;;5018242;28;20477;-73
2023/01/27 09:25:52;;;;;;;9.77;4.68;;;;;;;;;;5015873;28;20029;-74
2023/01/27 09:28:18;;;;;;;8.05;4.47;;;;;;;;;;5026205;28;20041;-73
2023/01/27 09:30:47;;;;;;;7.18;4.10;;;;;;;;;;5008876;28;20061;-73
2023/01/27 09:33:13;;;;;;;8.05;4.50;;;;;;;;;;5027916;28;20042;-73
2023/01/27 09:35:45;;;;;;;10.63;4.47;;;;;;;;;;5015221;28;20545;-79
2023/01/27 09:38:13;;;;;;;9.82;4.90;;;;;;;;;;5010121;28;20041;-80
2023/01/27 09:40:48;;;;;;;14.48;5.57;;;;;;;;;;5003674;28;20393;-74
2023/01/27 09:43:47;;;;;;;9.35;4.75;;;;;;;;;;5018251;28;20040;-79
2023/01/27 09:46:40;;;;;;;10.05;3.42;;;;;;;;;;5015010;28;20056;-73
2023/01/27 09:49:15;;;;;;;8.52;3.72;;;;;;;;;;5013164;28;20087;-73
2023/01/27 09:51:48;;;;;;;11.98;3.55;;;;;;;;;;5021365;28;20052;-73
2023/01/27 09:54:20;;;;;;;8.30;3.70;;;;;;;;;;4999888;28;20030;-73
2023/01/27 09:56:51;;;;;;;4.93;2.72;;;;;;;;;;5021922;28;20122;-74
2023/01/27 09:59:26;;;;;;;10.27;3.70;;;;;;;;;;5010194;28;20037;-76
2023/01/27 10:02:14;;;;;;;10.25;4.72;;;;;;;;;;5021770;28;20064;-73
2023/01/27 10:04:54;;;;;;;5.75;3.63;;;;;;;;;;5010785;28;20528;-73
2023/01/27 10:07:42;;;;;;;8.35;4.18;;;;;;;;;;5025988;28;20090;-73
2023/01/27 10:10:28;;;;;;;9.05;5.05;;;;;;;;;;5001341;28;20037;-73
2023/01/27 10:13:18;;;;;;;9.20;4.28;;;;;;;;;;5021875;28;20072;-74
2023/01/27 10:16:19;;;;;;;8.30;4.00;;;;;;;;;;5010473;28;20108;-74
2023/01/27 10:19:26;;;;;;;10.80;4.35;;;;;;;;;;5023306;28;20099;-73
2023/01/27 10:22:27;;;;;;;7.38;3.90;;;;;;;;;;5007450;28;20040;-73
2023/01/27 10:25:15;;;;;;;12.32;4.47;;;;;;;;;;4986488;28;20034;-74
2023/01/27 10:27:47;;;;;;;8.00;4.30;;;;;;;;;;5010390;28;20343;-73
2023/01/27 10:30:15;;;;;;;8.95;4.03;;;;;;;;;;5018633;28;20037;-73
2023/01/27 10:33:01;;;;;;;10.23;4.68;;;;;;;;;;5022297;28;20052;-74
2023/01/27 10:35:46;;;;;;;8.02;4.05;;;;;;;;;;5019759;28;20477;-73
2023/01/27 10:38:36;;;;;;;8.55;3.47;;;;;;;;;;5017699;28;20445;-73
2023/01/27 10:41:06;;;;;;;6.20;3.33;;;;;;;;;;5011868;28;20034;-73
2023/01/27 10:43:42;;;;;;;7.43;4.00;;;;;;;;;;5023276;28;20142;-73
2023/01/27 10:46:32;;;;;;;7.40;3.78;;;;;;;;;;5013471;28;20041;-73
2023/01/27 10:49:00;;;;;;;9.57;3.85;;;;;;;;;;5018048;28;20022;-74
2023/01/27 10:51:39;;;;;;;8.50;3.60;;;;;;;;;;5015428;28;20061;-75
2023/01/27 10:54:23;;;;;;;7.15;3.38;;;;;;;;;;5015698;28;20030;-74
2023/01/27 10:56:59;;;;;;;9.00;3.42;;;;;;;;;;5002067;28;20074;-73
2023/01/27 10:59:26;;;;;;;6.13;3.50;;;;;;;;;;5023112;28;20498;-73
2023/01/27 11:02:34;;;;;;;6.10;3.17;;;;;;;;;;5021514;28;20045;-74
2023/01/27 11:05:03;;;;;;;6.82;3.22;;;;;;;;;;5006776;28;20100;-74
2023/01/27 11:07:30;;;;;;;4.53;2.65;;;;;;;;;;5021829;28;20458;-73
2023/01/27 11:10:09;;;;;;;5.15;2.63;;;;;;;;;;5001838;28;20041;-74
2023/01/27 11:12:38;;;;;;;8.55;3.03;;;;;;;;;;5017675;28;20128;-73
2023/01/27 11:15:16;;;;;;;6.28;2.90;;;;;;;;;;5017796;28;20548;-76
2023/01/27 11:17:44;;;;;;;5.25;2.53;;;;;;;;;;5005419;28;20065;-75
2023/01/27 11:20:34;;;;;;;4.47;2.58;;;;;;;;;;5015483;28;20473;-73
2023/01/27 11:23:08;;;;;;;6.40;2.65;;;;;;;;;;5016814;28;20033;-74
2023/01/27 11:25:55;;;;;;;9.85;2.80;;;;;;;;;;5007571;28;20033;-74
2023/01/27 11:28:28;;;;;;;5.80;2.70;;;;;;;;;;5012503;28;20045;-73
2023/01/27 11:31:25;;;;;;;5.72;2.83;;;;;;;;;;5019073;28;20026;-73
2023/01/27 11:34:01;;;;;;;6.55;2.90;;;;;;;;;;4993154;28;20437;-74
2023/01/27 11:36:27;;;;;;;11.00;3.35;;;;;;;;;;5019226;28;20492;-73
2023/01/27 11:38:53;;;;;;;8.25;3.25;;;;;;;;;;5013951;28;20041;-80
2023/01/27 11:41:19;;;;;;;9.05;3.10;;;;;;;;;;5017009;28;20082;-74
2023/01/27 11:43:44;;;;;;;9.27;2.38;;;;;;;;;;5017795;28;20042;-73
2023/01/27 11:46:14;;;;;;;6.38;2.65;;;;;;;;;;5017309;28;20046;-74
2023/01/27 11:48:47;;;;;;;7.22;2.22;;;;;;;;;;5018717;28;20481;-77
2023/01/27 11:51:28;;;;;;;7.57;2.40;;;;;;;;;;5022188;28;20136;-74
2023/01/27 11:54:02;;;;;;;4.32;1.90;;;;;;;;;;5023502;28;20029;-73
2023/01/27 11:56:28;;;;;;;4.15;2.08;;;;;;;;;;5017654;28;20037;-75
2023/01/27 11:59:02;;;;;;;6.32;2.25;;;;;;;;;;5017380;28;20038;-73
2023/01/27 12:01:35;;;;;;;;;;;;;;;;;;5012957;28;20091;-73
2023/01/27 12:04:18;;;;;;;3.67;2.35;;;;;;;;;;5018040;28;19917;-73
2023/01/27 12:06:52;;;;;;;5.57;2.47;;;;;;;;;;5019582;28;20038;-74
2023/01/27 12:09:31;;;;;;;;;;;;;;;;;;5011577;28;20099;-73
2023/01/27 12:12:26;;;;;;;10.40;2.10;;;;;;;;;;5013562;28;19978;-73
2023/01/27 12:14:57;;;;;;;5.63;1.85;;;;;;;;;;5014288;28;20045;-74
2023/01/27 12:17:45;;;;;;;9.57;2.08;;;;;;;;;;5005990;28;20383;-73
2023/01/27 12:20:17;;;;;;;5.75;2.10;;;;;;;;;;5005400;28;20038;-74
2023/01/27 12:22:47;;;;;;;5.20;2.00;;;;;;;;;;5014601;28;20075;-74
2023/01/27 12:25:23;;;;;;;6.60;2.70;;;;;;;;;;5013658;28;20053;-74
2023/01/27 12:28:02;;;;;;;4.20;1.85;;;;;;;;;;5019521;28;20652;-73
2023/01/27 12:30:31;;;;;;;5.63;1.90;;;;;;;;;;4996074;28;20051;-73
2023/01/27 12:32:58;;;;;;;11.43;1.77;;;;;;;;;;5013915;28;20038;-73
2023/01/27 12:35:27;;;;;;;4.60;1.70;;;;;;;;;;5019368;28;20033;-74
2023/01/27 12:38:00;;;;;;;5.57;2.28;;;;;;;;;;5023441;28;20079;-75
2023/01/27 12:40:27;;;;;;;5.35;1.75;;;;;;;;;;5023944;28;20136;-74
2023/01/27 12:43:11;;;;;;;4.93;2.00;;;;;;;;;;5025816;28;20068;-73
2023/01/27 12:45:37;;;;;;;5.70;2.17;;;;;;;;;;5016696;28;20034;-74
2023/01/27 12:48:08;;;;;;;8.10;1.90;;;;;;;;;;5019967;28;20488;-80
2023/01/27 12:50:39;;;;;;;7.68;1.98;;;;;;;;;;5020663;28;20102;-80
2023/01/27 12:53:15;;;;;;;4.57;1.88;;;;;;;;;;5017224;28;20050;-75
2023/01/27 12:56:09;;;;;;;5.85;1.65;;;;;;;;;;5017705;28;20038;-74
2023/01/27 12:58:38;;;;;;;6.93;1.98;;;;;;;;;;5015248;28;20069;-74
2023/01/27 13:01:07;;;;;;;6.15;2.30;;;;;;;;;;5013763;28;20584;-74
2023/01/27 13:03:38;;;;;;;8.27;2.58;;;;;;;;;;5008926;28;20037;-74
2023/01/27 13:06:03;;;;;;;9.75;2.20;;;;;;;;;;5013576;28;20037;-73
2023/01/27 13:08:31;;;;;;;8.15;1.83;;;;;;;;;;5012044;28;20044;-73
2023/01/27 13:10:58;;;;;;;6.70;2.60;;;;;;;;;;5035105;28;20033;-74
2023/01/27 13:13:26;;;;;;;10.02;2.10;;;;;;;;;;5012110;28;20045;-73
2023/01/27 13:16:02;;;;;;;10.73;2.10;;;;;;;;;;5010621;28;20040;-80
2023/01/27 13:18:32;;;;;;;8.05;2.20;;;;;;;;;;5022975;28;20045;-73
2023/01/27 13:21:14;;;;;;;6.65;1.90;;;;;;;;;;5020552;28;20025;-74
2023/01/27 13:23:42;;;;;;;6.32;1.98;;;;;;;;;;5013279;28;20033;-73
2023/01/27 13:26:13;;;;;;;8.50;2.13;;;;;;;;;;5026745;28;20100;-74
2023/01/27 13:28:51;;;;;;;7.30;1.88;;;;;;;;;;5015229;28;20037;-74
2023/01/27 13:31:48;;;;;;;8.52;1.60;;;;;;;;;;5023786;28;20120;-74
2023/01/27 13:34:35;;;;;;;4.97;1.50;;;;;;;;;;4990810;28;20038;-74
2023/01/27 13:37:07;;;;;;;4.97;1.63;;;;;;;;;;5008712;28;20038;-74
2023/01/27 13:40:03;;;;;;;6.07;2.00;;;;;;;;;;5016143;28;20033;-74
2023/01/27 13:42:48;;;;;;;9.82;1.88;;;;;;;;;;5000324;28;20049;-76
2023/01/27 13:45:36;;;;;;;6.50;1.85;;;;;;;;;;5015782;28;20132;-73
2023/01/27 13:48:11;;;;;;;7.13;1.85;;;;;;;;;;5007932;28;20781;-73
2023/01/27 13:50:41;;;;;;;6.05;1.60;;;;;;;;;;5011487;28;20037;-75
2023/01/27 13:53:13;;;;;;;8.80;1.70;;;;;;;;;;5018141;28;20042;-74
2023/01/27 13:56:00;;;;;;;8.90;1.75;;;;;;;;;;5014938;28;20034;-74
2023/01/27 13:58:59;;;;;;;4.85;1.73;;;;;;;;;;5011419;28;20117;-79
2023/01/27 14:01:40;;;;;;;6.55;1.67;;;;;;;;;;5027468;28;20051;-74
2023/01/27 14:04:26;;;;;;;5.97;1.70;;;;;;;;;;5016979;28;20037;-73
2023/01/27 14:07:00;;;;;;;3.83;2.30;;;;;;;;;;5022506;28;20049;-73
2023/01/27 14:09:34;;;;;;;8.63;2.28;;;;;;;;;;5022226;28;20048;-73
2023/01/27 14:12:05;;;;;;;11.35;1.90;;;;;;;;;;5019415;28;20559;-74
2023/01/27 14:14:55;;;;;;;8.65;2.65;;;;;;;;;;5014881;28;20033;-74
2023/01/27 14:17:48;;;;;;;10.13;2.03;;;;;;;;;;5020934;28;20053;-73
2023/01/27 14:20:26;;;;;;;5.10;1.73;;;;;;;;;;5013083;28;20065;-74
2023/01/27 14:22:54;;;;;;;5.50;1.40;;;;;;;;;;5019076;28;20033;-74
2023/01/27 14:25:40;;;;;;;5.45;1.60;;;;;;;;;;4994989;28;20046;-81
2023/01/27 14:28:34;;;;;;;6.93;1.63;;;;;;;;;;5008937;28;20056;-73
2023/01/27 14:31:05;;;;;;;9.98;1.80;;;;;;;;;;5017626;28;20109;-75
2023/01/27 14:33:33;;;;;;;9.52;2.08;;;;;;;;;;5005742;28;20115;-73
2023/01/27 14:36:11;;;;;;;4.60;1.60;;;;;;;;;;5010535;28;20104;-74
2023/01/27 14:38:52;;;;;;;8.15;1.70;;;;;;;;;;5013760;28;20042;-75
2023/01/27 14:41:47;;;;;;;5.43;1.52;;;;;;;;;;5019006;28;20033;-74
2023/01/27 14:44:38;;;;;;;4.20;1.20;;;;;;;;;;4995397;28;20064;-74
2023/01/27 14:47:17;;;;;;;7.72;1.50;;;;;;;;;;5014942;28;20854;-75
2023/01/27 14:50:12;;;;;;;7.45;1.45;;;;;;;;;;5018795;28;20425;-75
2023/01/27 14:53:04;;;;;;;;;;;;;;;;;;5016828;28;20441;-75
2023/01/27 14:55:39;;;;;;;6.40;1.33;;;;;;;;;;5002538;28;20011;-70
2023/01/27 14:58:30;;;;;;;7.68;2.10;;;;;;;;;;5020466;28;20458;-74
2023/01/27 15:01:24;;;;;;;7.03;1.55;;;;;;;;;;5025486;28;20055;-74
2023/01/27 15:04:10;;;;;;;5.60;1.13;;;;;;;;;;5015027;28;20037;-73
2023/01/27 15:06:48;;;;;;;3.10;1.00;;;;;;;;;;5022159;28;20073;-74
2023/01/27 15:09:40;;;;;;;7.50;1.42;;;;;;;;;;5024926;28;20041;-74
2023/01/27 15:12:33;;;;;;;4.70;1.35;;;;;;;;;;5015496;28;20129;-73
2023/01/27 15:15:22;;;;;;;10.57;1.50;;;;;;;;;;5022614;28;20037;-73
2023/01/27 15:18:12;;;;;;;7.30;1.75;;;;;;;;;;5015669;28;20037;-73
2023/01/27 15:20:59;;;;;;;7.90;1.92;;;;;;;;;;5004736;28;20038;-73
2023/01/27 15:23:52;;;;;;;8.05;1.33;;;;;;;;;;5021687;28;20405;-74
2023/01/27 15:26:22;;;;;;;4.05;1.30;;;;;;;;;;5027694;28;20030;-74
2023/01/27 15:28:47;;;;;;;6.55;1.63;;;;;;;;;;5019654;28;20072;-74
2023/01/27 15:31:13;;;;;;;9.43;1.40;;;;;;;;;;5015162;28;20045;-74
2023/01/27 15:33:49;;;;;;;4.70;1.45;;;;;;;;;;5015747;28;20049;-74
2023/01/27 15:36:31;;;;;;;4.22;1.70;;;;;;;;;;5015256;28;20049;-74
2023/01/27 15:39:08;;;;;;;4.25;1.15;;;;;;;;;;5028884;28;20388;-74
2023/01/27 15:42:02;;;;;;;6.60;2.05;;;;;;;;;;5017315;28;20037;-74
2023/01/27 15:44:32;;;;;;;4.65;1.27;;;;;;;;;;4996369;28;20076;-74
2023/01/27 15:47:22;;;;;;;8.50;1.90;;;;;;;;;;5031644;28;20058;-76
2023/01/27 15:49:50;;;;;;;11.13;1.80;;;;;;;;;;5003958;28;20116;-74